sensor_id;sensor_type;location;lat;lon;timestamp;temperature;humidity
31443;SHT31;18065;55.876;9.830;2022-07-23T00:01:32;22.71;54.40
31443;SHT31;18065;55.876;9.830;2022-07-23T00:04:00;22.66;54.44
31443;SHT31;18065;55.876;9.830;2022-07-23T00:06:29;22.75;54.37
31443;SHT31;18065;55.876;9.830;2022-07-23T00:08:58;22.72;54.33
31443;SHT31;18065;55.876;9.830;2022-07-23T00:11:30;22.72;54.37
31443;SHT31;18065;55.876;9.830;2022-07-23T00:13:58;22.72;54.37
31443;SHT31;18065;55.876;9.830;2022-07-23T00:16:27;22.73;54.33
31443;SHT31;18065;55.876;9.830;2022-07-23T00:18:56;22.68;54.41
31443;SHT31;18065;55.876;9.830;2022-07-23T00:21:26;22.71;54.38
31443;SHT31;18065;55.876;9.830;2022-07-23T00:23:55;22.65;54.50
31443;SHT31;18065;55.876;9.830;2022-07-23T00:26:24;22.59;54.73
31443;SHT31;18065;55.876;9.830;2022-07-23T00:28:55;22.54;54.87
31443;SHT31;18065;55.876;9.830;2022-07-23T00:31:24;22.55;54.91
31443;SHT31;18065;55.876;9.830;2022-07-23T00:33:53;22.56;54.89
31443;SHT31;18065;55.876;9.830;2022-07-23T00:36:23;22.54;55.05
31443;SHT31;18065;55.876;9.830;2022-07-23T00:38:52;22.49;55.16
31443;SHT31;18065;55.876;9.830;2022-07-23T00:41:21;22.51;55.17
31443;SHT31;18065;55.876;9.830;2022-07-23T00:43:49;22.52;55.08
31443;SHT31;18065;55.876;9.830;2022-07-23T00:46:22;22.55;55.08
31443;SHT31;18065;55.876;9.830;2022-07-23T00:48:50;22.55;55.06
31443;SHT31;18065;55.876;9.830;2022-07-23T00:51:19;22.49;55.18
31443;SHT31;18065;55.876;9.830;2022-07-23T00:53:48;22.49;55.24
31443;SHT31;18065;55.876;9.830;2022-07-23T00:56:17;22.51;55.22
31443;SHT31;18065;55.876;9.830;2022-07-23T00:58:46;22.49;55.31
31443;SHT31;18065;55.876;9.830;2022-07-23T01:01:15;22.54;55.17
31443;SHT31;18065;55.876;9.830;2022-07-23T01:03:46;22.55;55.13
31443;SHT31;18065;55.876;9.830;2022-07-23T01:06:15;22.56;55.07
31443;SHT31;18065;55.876;9.830;2022-07-23T01:08:45;22.58;55.11
31443;SHT31;18065;55.876;9.830;2022-07-23T01:11:14;22.52;55.14
31443;SHT31;18065;55.876;9.830;2022-07-23T01:13:43;22.52;55.10
31443;SHT31;18065;55.876;9.830;2022-07-23T01:16:12;22.55;55.06
31443;SHT31;18065;55.876;9.830;2022-07-23T01:18:40;22.55;55.15
31443;SHT31;18065;55.876;9.830;2022-07-23T01:21:13;22.55;55.09
31443;SHT31;18065;55.876;9.830;2022-07-23T01:23:44;22.55;55.08
31443;SHT31;18065;55.876;9.830;2022-07-23T01:26:13;22.56;55.01
31443;SHT31;18065;55.876;9.830;2022-07-23T01:28:43;22.51;55.08
31443;SHT31;18065;55.876;9.830;2022-07-23T01:31:12;22.55;55.10
31443;SHT31;18065;55.876;9.830;2022-07-23T01:33:40;22.52;55.04
31443;SHT31;18065;55.876;9.830;2022-07-23T01:36:09;22.58;54.98
31443;SHT31;18065;55.876;9.830;2022-07-23T01:38:38;22.56;54.96
31443;SHT31;18065;55.876;9.830;2022-07-23T01:41:09;22.58;54.89
31443;SHT31;18065;55.876;9.830;2022-07-23T01:43:38;22.61;54.91
31443;SHT31;18065;55.876;9.830;2022-07-23T01:46:07;22.65;54.82
31443;SHT31;18065;55.876;9.830;2022-07-23T01:48:36;22.66;54.71
31443;SHT31;18065;55.876;9.830;2022-07-23T01:51:05;22.62;54.80
31443;SHT31;18065;55.876;9.830;2022-07-23T01:53:33;22.56;54.96
31443;SHT31;18065;55.876;9.830;2022-07-23T01:56:02;22.56;54.87
31443;SHT31;18065;55.876;9.830;2022-07-23T01:58:34;22.61;54.84
31443;SHT31;18065;55.876;9.830;2022-07-23T02:01:03;22.61;54.84
31443;SHT31;18065;55.876;9.830;2022-07-23T02:03:32;22.61;54.84
31443;SHT31;18065;55.876;9.830;2022-07-23T02:06:00;22.64;54.74
31443;SHT31;18065;55.876;9.830;2022-07-23T02:08:29;22.62;54.78
31443;SHT31;18065;55.876;9.830;2022-07-23T02:10:58;22.59;54.83
31443;SHT31;18065;55.876;9.830;2022-07-23T02:13:27;22.58;54.90
31443;SHT31;18065;55.876;9.830;2022-07-23T02:15:58;22.58;54.86
31443;SHT31;18065;55.876;9.830;2022-07-23T02:18:27;22.68;54.69
31443;SHT31;18065;55.876;9.830;2022-07-23T02:20:55;22.68;54.66
31443;SHT31;18065;55.876;9.830;2022-07-23T02:23:24;22.68;54.65
31443;SHT31;18065;55.876;9.830;2022-07-23T02:25:53;22.76;54.45
31443;SHT31;18065;55.876;9.830;2022-07-23T02:28:21;22.73;54.56
31443;SHT31;18065;55.876;9.830;2022-07-23T02:30:50;22.75;54.38
31443;SHT31;18065;55.876;9.830;2022-07-23T02:33:22;22.77;54.35
31443;SHT31;18065;55.876;9.830;2022-07-23T02:35:51;22.82;54.18
31443;SHT31;18065;55.876;9.830;2022-07-23T02:38:20;22.80;54.20
31443;SHT31;18065;55.876;9.830;2022-07-23T02:40:48;22.82;54.28
31443;SHT31;18065;55.876;9.830;2022-07-23T02:43:17;22.86;54.07
31443;SHT31;18065;55.876;9.830;2022-07-23T02:45:46;22.87;54.12
31443;SHT31;18065;55.876;9.830;2022-07-23T02:48:14;22.86;54.18
31443;SHT31;18065;55.876;9.830;2022-07-23T02:50:46;22.85;54.15
31443;SHT31;18065;55.876;9.830;2022-07-23T02:53:14;22.86;54.18
31443;SHT31;18065;55.876;9.830;2022-07-23T02:55:43;22.82;54.25
31443;SHT31;18065;55.876;9.830;2022-07-23T02:58:12;22.82;54.29
31443;SHT31;18065;55.876;9.830;2022-07-23T03:00:41;22.80;54.26
31443;SHT31;18065;55.876;9.830;2022-07-23T03:03:10;22.75;54.47
31443;SHT31;18065;55.876;9.830;2022-07-23T03:05:39;22.73;54.56
31443;SHT31;18065;55.876;9.830;2022-07-23T03:08:10;22.71;54.59
31443;SHT31;18065;55.876;9.830;2022-07-23T03:10:39;22.72;54.56
31443;SHT31;18065;55.876;9.830;2022-07-23T03:13:08;22.72;54.59
31443;SHT31;18065;55.876;9.830;2022-07-23T03:15:36;22.73;54.51
31443;SHT31;18065;55.876;9.830;2022-07-23T03:18:05;22.73;54.64
31443;SHT31;18065;55.876;9.830;2022-07-23T03:20:34;22.76;54.47
31443;SHT31;18065;55.876;9.830;2022-07-23T03:23:03;22.79;54.46
31443;SHT31;18065;55.876;9.830;2022-07-23T03:25:35;22.73;54.53
31443;SHT31;18065;55.876;9.830;2022-07-23T03:28:04;22.71;54.55
31443;SHT31;18065;55.876;9.830;2022-07-23T03:30:33;22.69;54.75
31443;SHT31;18065;55.876;9.830;2022-07-23T03:33:01;22.72;54.60
31443;SHT31;18065;55.876;9.830;2022-07-23T03:35:30;22.72;54.70
31443;SHT31;18065;55.876;9.830;2022-07-23T03:37:59;22.65;54.78
31443;SHT31;18065;55.876;9.830;2022-07-23T03:40:27;22.58;55.04
31443;SHT31;18065;55.876;9.830;2022-07-23T03:42:59;22.52;55.19
31443;SHT31;18065;55.876;9.830;2022-07-23T03:45:27;22.59;55.10
31443;SHT31;18065;55.876;9.830;2022-07-23T03:47:56;22.62;54.98
31443;SHT31;18065;55.876;9.830;2022-07-23T03:50:25;22.58;55.07
31443;SHT31;18065;55.876;9.830;2022-07-23T03:52:54;22.56;55.09
31443;SHT31;18065;55.876;9.830;2022-07-23T03:55:23;22.58;55.13
31443;SHT31;18065;55.876;9.830;2022-07-23T03:57:51;22.55;55.20
31443;SHT31;18065;55.876;9.830;2022-07-23T04:00:23;22.55;55.17
31443;SHT31;18065;55.876;9.830;2022-07-23T04:02:51;22.49;55.36
31443;SHT31;18065;55.876;9.830;2022-07-23T04:05:20;22.48;55.38
31443;SHT31;18065;55.876;9.830;2022-07-23T04:07:49;22.55;55.11
31443;SHT31;18065;55.876;9.830;2022-07-23T04:10:18;22.51;55.20
31443;SHT31;18065;55.876;9.830;2022-07-23T04:12:47;22.48;55.32
31443;SHT31;18065;55.876;9.830;2022-07-23T04:15:16;22.44;55.40
31443;SHT31;18065;55.876;9.830;2022-07-23T04:17:47;22.39;55.54
31443;SHT31;18065;55.876;9.830;2022-07-23T04:20:16;22.42;55.45
31443;SHT31;18065;55.876;9.830;2022-07-23T04:22:44;22.52;55.20
31443;SHT31;18065;55.876;9.830;2022-07-23T04:25:13;22.62;54.93
31443;SHT31;18065;55.876;9.830;2022-07-23T04:27:42;22.64;54.81
31443;SHT31;18065;55.876;9.830;2022-07-23T04:30:11;22.66;54.82
31443;SHT31;18065;55.876;9.830;2022-07-23T04:32:40;22.69;54.71
31443;SHT31;18065;55.876;9.830;2022-07-23T04:35:12;22.68;54.75
31443;SHT31;18065;55.876;9.830;2022-07-23T04:37:40;22.66;54.78
31443;SHT31;18065;55.876;9.830;2022-07-23T04:40:11;22.62;54.98
31443;SHT31;18065;55.876;9.830;2022-07-23T04:42:41;22.66;54.93
31443;SHT31;18065;55.876;9.830;2022-07-23T04:45:10;22.68;54.78
31443;SHT31;18065;55.876;9.830;2022-07-23T04:47:39;22.69;54.87
31443;SHT31;18065;55.876;9.830;2022-07-23T04:50:08;22.72;54.89
31443;SHT31;18065;55.876;9.830;2022-07-23T04:52:39;22.71;54.89
31443;SHT31;18065;55.876;9.830;2022-07-23T04:55:08;22.66;55.01
31443;SHT31;18065;55.876;9.830;2022-07-23T04:57:37;22.55;55.28
31443;SHT31;18065;55.876;9.830;2022-07-23T05:00:08;22.54;55.32
31443;SHT31;18065;55.876;9.830;2022-07-23T05:02:37;22.58;55.25
31443;SHT31;18065;55.876;9.830;2022-07-23T05:05:07;22.64;55.12
31443;SHT31;18065;55.876;9.830;2022-07-23T05:07:36;22.62;55.09
31443;SHT31;18065;55.876;9.830;2022-07-23T05:10:08;22.61;55.08
31443;SHT31;18065;55.876;9.830;2022-07-23T05:12:37;22.61;55.14
31443;SHT31;18065;55.876;9.830;2022-07-23T05:15:06;22.59;55.14
31443;SHT31;18065;55.876;9.830;2022-07-23T05:17:35;22.55;55.18
31443;SHT31;18065;55.876;9.830;2022-07-23T05:20:05;22.65;54.90
31443;SHT31;18065;55.876;9.830;2022-07-23T05:22:34;22.66;54.93
31443;SHT31;18065;55.876;9.830;2022-07-23T05:25:03;22.66;54.87
31443;SHT31;18065;55.876;9.830;2022-07-23T05:27:35;22.71;54.87
31443;SHT31;18065;55.876;9.830;2022-07-23T05:30:04;22.54;55.33
31443;SHT31;18065;55.876;9.830;2022-07-23T05:32:34;22.65;54.91
31443;SHT31;18065;55.876;9.830;2022-07-23T05:35:03;22.71;54.82
31443;SHT31;18065;55.876;9.830;2022-07-23T05:37:32;22.62;55.01
31443;SHT31;18065;55.876;9.830;2022-07-23T05:40:02;22.72;54.80
31443;SHT31;18065;55.876;9.830;2022-07-23T05:42:35;22.69;54.85
31443;SHT31;18065;55.876;9.830;2022-07-23T05:45:05;22.61;55.07
31443;SHT31;18065;55.876;9.830;2022-07-23T05:47:40;22.59;55.02
31443;SHT31;18065;55.876;9.830;2022-07-23T05:50:10;22.79;54.56
31443;SHT31;18065;55.876;9.830;2022-07-23T05:52:39;22.80;54.38
31443;SHT31;18065;55.876;9.830;2022-07-23T05:55:09;22.82;54.38
31443;SHT31;18065;55.876;9.830;2022-07-23T05:57:41;22.72;54.61
31443;SHT31;18065;55.876;9.830;2022-07-23T06:00:11;22.65;54.73
31443;SHT31;18065;55.876;9.830;2022-07-23T06:02:40;22.75;54.57
31443;SHT31;18065;55.876;9.830;2022-07-23T06:05:09;22.69;54.55
31443;SHT31;18065;55.876;9.830;2022-07-23T06:07:39;22.73;54.52
31443;SHT31;18065;55.876;9.830;2022-07-23T06:10:09;22.76;54.40
31443;SHT31;18065;55.876;9.830;2022-07-23T06:12:40;22.68;54.61
31443;SHT31;18065;55.876;9.830;2022-07-23T06:15:09;22.71;54.59
31443;SHT31;18065;55.876;9.830;2022-07-23T06:17:38;22.83;54.23
31443;SHT31;18065;55.876;9.830;2022-07-23T06:20:09;22.72;54.42
31443;SHT31;18065;55.876;9.830;2022-07-23T06:22:38;22.79;54.26
31443;SHT31;18065;55.876;9.830;2022-07-23T06:25:07;22.85;54.04
31443;SHT31;18065;55.876;9.830;2022-07-23T06:27:36;22.80;54.26
31443;SHT31;18065;55.876;9.830;2022-07-23T06:30:09;22.76;54.32
31443;SHT31;18065;55.876;9.830;2022-07-23T06:32:38;22.68;54.52
31443;SHT31;18065;55.876;9.830;2022-07-23T06:35:08;22.56;54.79
31443;SHT31;18065;55.876;9.830;2022-07-23T06:37:36;22.42;55.23
31443;SHT31;18065;55.876;9.830;2022-07-23T06:40:09;22.54;54.86
31443;SHT31;18065;55.876;9.830;2022-07-23T06:42:38;22.61;54.70
31443;SHT31;18065;55.876;9.830;2022-07-23T06:45:10;22.66;54.50
31443;SHT31;18065;55.876;9.830;2022-07-23T06:47:39;22.72;54.32
31443;SHT31;18065;55.876;9.830;2022-07-23T06:50:08;22.76;54.20
31443;SHT31;18065;55.876;9.830;2022-07-23T06:52:37;22.73;54.26
31443;SHT31;18065;55.876;9.830;2022-07-23T06:55:07;22.83;54.03
31443;SHT31;18065;55.876;9.830;2022-07-23T06:57:35;22.87;53.97
31443;SHT31;18065;55.876;9.830;2022-07-23T07:00:06;22.89;53.82
31443;SHT31;18065;55.876;9.830;2022-07-23T07:02:38;22.92;53.75
31443;SHT31;18065;55.876;9.830;2022-07-23T07:05:07;22.93;53.68
31443;SHT31;18065;55.876;9.830;2022-07-23T07:07:36;22.95;53.62
31443;SHT31;18065;55.876;9.830;2022-07-23T07:10:06;22.79;54.02
31443;SHT31;18065;55.876;9.830;2022-07-23T07:12:35;22.85;53.81
31443;SHT31;18065;55.876;9.830;2022-07-23T07:15:04;22.79;53.97
31443;SHT31;18065;55.876;9.830;2022-07-23T07:17:33;22.85;53.84
31443;SHT31;18065;55.876;9.830;2022-07-23T07:20:05;22.87;53.77
31443;SHT31;18065;55.876;9.830;2022-07-23T07:22:34;22.86;53.75
31443;SHT31;18065;55.876;9.830;2022-07-23T07:25:04;22.85;53.87
31443;SHT31;18065;55.876;9.830;2022-07-23T07:27:33;22.83;53.84
31443;SHT31;18065;55.876;9.830;2022-07-23T07:30:02;22.90;53.74
31443;SHT31;18065;55.876;9.830;2022-07-23T07:32:31;22.86;53.77
31443;SHT31;18065;55.876;9.830;2022-07-23T07:35:05;22.80;53.99
31443;SHT31;18065;55.876;9.830;2022-07-23T07:37:34;22.85;53.82
31443;SHT31;18065;55.876;9.830;2022-07-23T07:40:04;22.77;54.04
31443;SHT31;18065;55.876;9.830;2022-07-23T07:42:33;22.75;54.10
31443;SHT31;18065;55.876;9.830;2022-07-23T07:45:02;22.71;54.19
31443;SHT31;18065;55.876;9.830;2022-07-23T07:47:31;22.73;54.12
31443;SHT31;18065;55.876;9.830;2022-07-23T07:50:00;22.71;54.21
31443;SHT31;18065;55.876;9.830;2022-07-23T07:52:32;22.73;54.11
31443;SHT31;18065;55.876;9.830;2022-07-23T07:55:02;22.65;54.28
31443;SHT31;18065;55.876;9.830;2022-07-23T07:57:31;22.61;54.42
31443;SHT31;18065;55.876;9.830;2022-07-23T07:59:59;22.64;54.29
31443;SHT31;18065;55.876;9.830;2022-07-23T08:02:29;22.61;54.24
31443;SHT31;18065;55.876;9.830;2022-07-23T08:04:58;22.68;54.12
31443;SHT31;18065;55.876;9.830;2022-07-23T08:07:26;22.61;54.22
31443;SHT31;18065;55.876;9.830;2022-07-23T08:09:58;22.58;54.26
31443;SHT31;18065;55.876;9.830;2022-07-23T08:12:27;22.54;54.32
31443;SHT31;18065;55.876;9.830;2022-07-23T08:14:55;22.58;54.20
31443;SHT31;18065;55.876;9.830;2022-07-23T08:17:24;22.59;54.19
31443;SHT31;18065;55.876;9.830;2022-07-23T08:19:53;22.66;53.96
31443;SHT31;18065;55.876;9.830;2022-07-23T08:22:22;22.69;53.87
31443;SHT31;18065;55.876;9.830;2022-07-23T08:24:50;22.49;54.29
31443;SHT31;18065;55.876;9.830;2022-07-23T08:27:22;22.47;54.44
31443;SHT31;18065;55.876;9.830;2022-07-23T08:29:50;22.51;54.30
31443;SHT31;18065;55.876;9.830;2022-07-23T08:32:19;22.51;54.20
31443;SHT31;18065;55.876;9.830;2022-07-23T08:34:48;22.47;54.30
31443;SHT31;18065;55.876;9.830;2022-07-23T08:37:16;22.55;54.10
31443;SHT31;18065;55.876;9.830;2022-07-23T08:39:45;22.58;54.05
31443;SHT31;18065;55.876;9.830;2022-07-23T08:42:14;22.58;54.14
31443;SHT31;18065;55.876;9.830;2022-07-23T08:44:47;22.49;54.17
31443;SHT31;18065;55.876;9.830;2022-07-23T08:47:16;22.58;54.00
31443;SHT31;18065;55.876;9.830;2022-07-23T08:49:46;22.69;53.75
31443;SHT31;18065;55.876;9.830;2022-07-23T08:52:15;22.71;53.71
31443;SHT31;18065;55.876;9.830;2022-07-23T08:54:44;22.73;53.62
31443;SHT31;18065;55.876;9.830;2022-07-23T08:57:13;22.69;53.66
31443;SHT31;18065;55.876;9.830;2022-07-23T08:59:42;22.71;53.59
31443;SHT31;18065;55.876;9.830;2022-07-23T09:02:14;22.71;53.62
31443;SHT31;18065;55.876;9.830;2022-07-23T09:04:43;22.69;53.64
31443;SHT31;18065;55.876;9.830;2022-07-23T09:07:13;22.58;53.89
31443;SHT31;18065;55.876;9.830;2022-07-23T09:09:42;22.62;53.83
31443;SHT31;18065;55.876;9.830;2022-07-23T09:12:10;22.58;53.89
31443;SHT31;18065;55.876;9.830;2022-07-23T09:14:41;22.54;54.00
31443;SHT31;18065;55.876;9.830;2022-07-23T09:17:16;22.66;53.75
31443;SHT31;18065;55.876;9.830;2022-07-23T09:19:45;22.65;53.80
31443;SHT31;18065;55.876;9.830;2022-07-23T09:22:21;22.56;53.95
31443;SHT31;18065;55.876;9.830;2022-07-23T09:25:06;22.62;53.84
31443;SHT31;18065;55.876;9.830;2022-07-23T09:27:51;22.59;53.82
31443;SHT31;18065;55.876;9.830;2022-07-23T09:30:22;22.61;53.78
31443;SHT31;18065;55.876;9.830;2022-07-23T09:33:13;22.65;53.81
31443;SHT31;18065;55.876;9.830;2022-07-23T09:35:47;22.54;54.05
31443;SHT31;18065;55.876;9.830;2022-07-23T09:38:17;22.49;54.08
31443;SHT31;18065;55.876;9.830;2022-07-23T09:40:46;22.65;53.79
31443;SHT31;18065;55.876;9.830;2022-07-23T09:43:26;22.71;53.71
31443;SHT31;18065;55.876;9.830;2022-07-23T09:46:16;22.72;53.51
31443;SHT31;18065;55.876;9.830;2022-07-23T09:48:49;22.69;53.63
31443;SHT31;18065;55.876;9.830;2022-07-23T09:51:19;22.68;53.63
31443;SHT31;18065;55.876;9.830;2022-07-23T09:53:53;22.75;53.57
31443;SHT31;18065;55.876;9.830;2022-07-23T09:56:22;22.71;53.52
31443;SHT31;18065;55.876;9.830;2022-07-23T09:58:51;22.73;53.44
31443;SHT31;18065;55.876;9.830;2022-07-23T10:01:28;22.76;53.43
31443;SHT31;18065;55.876;9.830;2022-07-23T10:04:01;22.77;53.39
31443;SHT31;18065;55.876;9.830;2022-07-23T10:06:31;22.75;53.35
31443;SHT31;18065;55.876;9.830;2022-07-23T10:08:59;22.76;53.35
31443;SHT31;18065;55.876;9.830;2022-07-23T10:11:30;22.76;53.45
31443;SHT31;18065;55.876;9.830;2022-07-23T10:14:01;22.79;53.28
31443;SHT31;18065;55.876;9.830;2022-07-23T10:16:31;22.76;53.30
31443;SHT31;18065;55.876;9.830;2022-07-23T10:19:03;22.80;53.25
31443;SHT31;18065;55.876;9.830;2022-07-23T10:21:39;22.77;53.30
31443;SHT31;18065;55.876;9.830;2022-07-23T10:24:18;22.72;53.45
31443;SHT31;18065;55.876;9.830;2022-07-23T10:26:58;22.75;53.38
31443;SHT31;18065;55.876;9.830;2022-07-23T10:29:40;22.80;53.40
31443;SHT31;18065;55.876;9.830;2022-07-23T10:32:21;22.76;53.47
31443;SHT31;18065;55.876;9.830;2022-07-23T10:34:58;22.77;53.39
31443;SHT31;18065;55.876;9.830;2022-07-23T10:37:30;22.69;53.50
31443;SHT31;18065;55.876;9.830;2022-07-23T10:40:13;22.66;53.57
31443;SHT31;18065;55.876;9.830;2022-07-23T10:42:43;22.58;53.64
31443;SHT31;18065;55.876;9.830;2022-07-23T10:45:30;22.51;53.78
31443;SHT31;18065;55.876;9.830;2022-07-23T10:48:14;22.48;53.82
31443;SHT31;18065;55.876;9.830;2022-07-23T10:51:06;22.44;53.88
31443;SHT31;18065;55.876;9.830;2022-07-23T10:53:54;22.49;53.70
31443;SHT31;18065;55.876;9.830;2022-07-23T11:02:44;22.47;53.71
31443;SHT31;18065;55.876;9.830;2022-07-23T11:05:15;22.48;53.61
31443;SHT31;18065;55.876;9.830;2022-07-23T11:10:52;22.41;53.82
31443;SHT31;18065;55.876;9.830;2022-07-23T11:13:36;22.44;53.71
31443;SHT31;18065;55.876;9.830;2022-07-23T11:16:10;22.39;53.76
31443;SHT31;18065;55.876;9.830;2022-07-23T11:19:03;22.35;53.93
31443;SHT31;18065;55.876;9.830;2022-07-23T11:21:48;22.35;53.90
31443;SHT31;18065;55.876;9.830;2022-07-23T11:24:21;22.37;53.90
31443;SHT31;18065;55.876;9.830;2022-07-23T11:27:04;22.39;53.84
31443;SHT31;18065;55.876;9.830;2022-07-23T11:29:54;22.41;53.94
31443;SHT31;18065;55.876;9.830;2022-07-23T11:32:34;22.41;53.94
31443;SHT31;18065;55.876;9.830;2022-07-23T11:35:19;22.45;53.96
31443;SHT31;18065;55.876;9.830;2022-07-23T11:37:48;22.49;53.95
31443;SHT31;18065;55.876;9.830;2022-07-23T11:40:19;22.48;54.01
31443;SHT31;18065;55.876;9.830;2022-07-23T11:42:56;22.48;54.17
31443;SHT31;18065;55.876;9.830;2022-07-23T11:45:30;22.45;54.32
31443;SHT31;18065;55.876;9.830;2022-07-23T11:48:00;22.45;54.26
31443;SHT31;18065;55.876;9.830;2022-07-23T11:50:30;22.42;54.33
31443;SHT31;18065;55.876;9.830;2022-07-23T11:52:59;22.42;54.43
31443;SHT31;18065;55.876;9.830;2022-07-23T11:55:27;22.41;54.41
31443;SHT31;18065;55.876;9.830;2022-07-23T11:57:59;22.39;54.56
31443;SHT31;18065;55.876;9.830;2022-07-23T12:00:31;22.39;54.57
31443;SHT31;18065;55.876;9.830;2022-07-23T12:03:01;22.45;54.50
31443;SHT31;18065;55.876;9.830;2022-07-23T12:05:32;22.51;54.51
31443;SHT31;18065;55.876;9.830;2022-07-23T12:08:04;22.55;54.47
31443;SHT31;18065;55.876;9.830;2022-07-23T12:10:35;22.54;54.53
31443;SHT31;18065;55.876;9.830;2022-07-23T12:13:09;22.42;54.69
31443;SHT31;18065;55.876;9.830;2022-07-23T12:15:39;22.41;54.80
31443;SHT31;18065;55.876;9.830;2022-07-23T12:18:09;22.38;54.85
31443;SHT31;18065;55.876;9.830;2022-07-23T12:20:41;22.45;54.66
31443;SHT31;18065;55.876;9.830;2022-07-23T12:23:13;22.48;54.52
31443;SHT31;18065;55.876;9.830;2022-07-23T12:25:44;22.41;54.56
31443;SHT31;18065;55.876;9.830;2022-07-23T12:28:18;22.47;54.54
31443;SHT31;18065;55.876;9.830;2022-07-23T12:30:49;22.44;54.52
31443;SHT31;18065;55.876;9.830;2022-07-23T12:33:24;22.39;54.69
31443;SHT31;18065;55.876;9.830;2022-07-23T12:35:54;22.45;54.53
31443;SHT31;18065;55.876;9.830;2022-07-23T12:38:25;22.48;54.53
31443;SHT31;18065;55.876;9.830;2022-07-23T12:40:56;22.42;54.68
31443;SHT31;18065;55.876;9.830;2022-07-23T12:43:29;22.48;54.57
31443;SHT31;18065;55.876;9.830;2022-07-23T12:46:03;22.45;54.55
31443;SHT31;18065;55.876;9.830;2022-07-23T12:48:35;22.48;54.45
31443;SHT31;18065;55.876;9.830;2022-07-23T12:51:05;22.51;54.33
31443;SHT31;18065;55.876;9.830;2022-07-23T12:53:37;22.41;54.64
31443;SHT31;18065;55.876;9.830;2022-07-23T12:56:09;22.38;54.75
31443;SHT31;18065;55.876;9.830;2022-07-23T12:58:48;22.47;54.58
31443;SHT31;18065;55.876;9.830;2022-07-23T13:01:28;22.31;54.83
31443;SHT31;18065;55.876;9.830;2022-07-23T13:04:00;22.31;54.83
31443;SHT31;18065;55.876;9.830;2022-07-23T13:06:32;22.38;54.67
31443;SHT31;18065;55.876;9.830;2022-07-23T13:09:04;22.34;54.76
31443;SHT31;18065;55.876;9.830;2022-07-23T13:11:33;22.31;54.79
31443;SHT31;18065;55.876;9.830;2022-07-23T13:14:06;22.34;54.82
31443;SHT31;18065;55.876;9.830;2022-07-23T13:16:35;22.42;54.67
31443;SHT31;18065;55.876;9.830;2022-07-23T13:19:04;22.41;54.67
31443;SHT31;18065;55.876;9.830;2022-07-23T13:21:33;22.34;54.93
31443;SHT31;18065;55.876;9.830;2022-07-23T13:24:02;22.42;54.80
31443;SHT31;18065;55.876;9.830;2022-07-23T13:26:31;22.45;54.72
31443;SHT31;18065;55.876;9.830;2022-07-23T13:29:00;22.44;54.83
31443;SHT31;18065;55.876;9.830;2022-07-23T13:31:32;22.41;54.95
31443;SHT31;18065;55.876;9.830;2022-07-23T13:34:02;22.41;54.91
31443;SHT31;18065;55.876;9.830;2022-07-23T13:36:31;22.49;54.69
31443;SHT31;18065;55.876;9.830;2022-07-23T13:39:00;22.51;54.67
31443;SHT31;18065;55.876;9.830;2022-07-23T13:41:29;22.54;54.63
31443;SHT31;18065;55.876;9.830;2022-07-23T13:43:58;22.54;54.62
31443;SHT31;18065;55.876;9.830;2022-07-23T13:46:27;22.52;54.72
31443;SHT31;18065;55.876;9.830;2022-07-23T13:48:59;22.48;54.74
31443;SHT31;18065;55.876;9.830;2022-07-23T13:51:27;22.49;54.74
31443;SHT31;18065;55.876;9.830;2022-07-23T13:53:56;22.49;54.61
31443;SHT31;18065;55.876;9.830;2022-07-23T13:56:25;22.49;54.61
31443;SHT31;18065;55.876;9.830;2022-07-23T13:58:54;22.44;54.72
31443;SHT31;18065;55.876;9.830;2022-07-23T14:01:23;22.39;54.77
31443;SHT31;18065;55.876;9.830;2022-07-23T14:03:51;22.48;54.57
31443;SHT31;18065;55.876;9.830;2022-07-23T14:06:23;22.41;54.78
31443;SHT31;18065;55.876;9.830;2022-07-23T14:08:52;22.34;54.90
31443;SHT31;18065;55.876;9.830;2022-07-23T14:11:21;22.35;54.93
31443;SHT31;18065;55.876;9.830;2022-07-23T14:13:50;22.39;54.92
31443;SHT31;18065;55.876;9.830;2022-07-23T14:16:18;22.35;55.01
31443;SHT31;18065;55.876;9.830;2022-07-23T14:18:47;22.37;54.95
31443;SHT31;18065;55.876;9.830;2022-07-23T14:21:16;22.39;54.91
31443;SHT31;18065;55.876;9.830;2022-07-23T14:23:47;22.38;55.01
31443;SHT31;18065;55.876;9.830;2022-07-23T14:26:16;22.39;55.01
31443;SHT31;18065;55.876;9.830;2022-07-23T14:28:45;22.37;55.10
31443;SHT31;18065;55.876;9.830;2022-07-23T14:31:14;22.41;55.06
31443;SHT31;18065;55.876;9.830;2022-07-23T14:33:43;22.42;55.02
31443;SHT31;18065;55.876;9.830;2022-07-23T14:36:12;22.47;54.88
31443;SHT31;18065;55.876;9.830;2022-07-23T14:38:40;22.52;54.77
31443;SHT31;18065;55.876;9.830;2022-07-23T14:41:12;22.49;54.81
31443;SHT31;18065;55.876;9.830;2022-07-23T14:43:41;22.51;54.66
31443;SHT31;18065;55.876;9.830;2022-07-23T14:46:10;22.47;54.61
31443;SHT31;18065;55.876;9.830;2022-07-23T14:48:39;22.42;54.65
31443;SHT31;18065;55.876;9.830;2022-07-23T14:51:08;22.38;54.57
31443;SHT31;18065;55.876;9.830;2022-07-23T14:53:36;22.45;54.37
31443;SHT31;18065;55.876;9.830;2022-07-23T14:56:05;22.39;54.37
31443;SHT31;18065;55.876;9.830;2022-07-23T14:58:36;22.37;54.40
31443;SHT31;18065;55.876;9.830;2022-07-23T15:01:06;22.35;54.34
31443;SHT31;18065;55.876;9.830;2022-07-23T15:03:35;22.37;54.11
31443;SHT31;18065;55.876;9.830;2022-07-23T15:06:04;22.41;53.98
31443;SHT31;18065;55.876;9.830;2022-07-23T15:08:34;22.42;53.91
31443;SHT31;18065;55.876;9.830;2022-07-23T15:11:03;22.45;53.74
31443;SHT31;18065;55.876;9.830;2022-07-23T15:13:37;22.45;53.60
31443;SHT31;18065;55.876;9.830;2022-07-23T15:16:07;22.49;53.48
31443;SHT31;18065;55.876;9.830;2022-07-23T15:18:37;22.42;53.53
31443;SHT31;18065;55.876;9.830;2022-07-23T15:21:06;22.44;53.47
31443;SHT31;18065;55.876;9.830;2022-07-23T15:23:35;22.52;53.25
31443;SHT31;18065;55.876;9.830;2022-07-23T15:26:05;22.54;53.04
31443;SHT31;18065;55.876;9.830;2022-07-23T15:28:37;22.55;53.04
31443;SHT31;18065;55.876;9.830;2022-07-23T15:31:06;22.56;53.01
31443;SHT31;18065;55.876;9.830;2022-07-23T15:33:35;22.55;52.90
31443;SHT31;18065;55.876;9.830;2022-07-23T15:36:06;22.54;52.81
31443;SHT31;18065;55.876;9.830;2022-07-23T15:38:35;22.47;52.93
31443;SHT31;18065;55.876;9.830;2022-07-23T15:41:04;22.52;52.77
31443;SHT31;18065;55.876;9.830;2022-07-23T15:43:33;22.55;52.73
31443;SHT31;18065;55.876;9.830;2022-07-23T15:46:04;22.55;52.55
31443;SHT31;18065;55.876;9.830;2022-07-23T15:48:35;22.52;52.51
31443;SHT31;18065;55.876;9.830;2022-07-23T15:51:05;22.54;52.49
31443;SHT31;18065;55.876;9.830;2022-07-23T15:53:34;22.56;52.37
31443;SHT31;18065;55.876;9.830;2022-07-23T15:56:05;22.56;52.36
31443;SHT31;18065;55.876;9.830;2022-07-23T15:58:34;22.55;52.32
31443;SHT31;18065;55.876;9.830;2022-07-23T16:01:07;22.56;52.32